sensor_id;sensor_type;location;lat;lon;timestamp;temperature;humidity
34135;DHT22;20410;55.578;12.968;2022-08-21T00:01:52;18.10;99.90
34135;DHT22;20410;55.578;12.968;2022-08-21T00:04:18;18.10;99.90
34135;DHT22;20410;55.578;12.968;2022-08-21T00:06:43;18.10;99.90
34135;DHT22;20410;55.578;12.968;2022-08-21T00:09:09;18.00;99.90
34135;DHT22;20410;55.578;12.968;2022-08-21T00:11:36;18.10;99.90
34135;DHT22;20410;55.578;12.968;2022-08-21T00:14:04;18.10;99.90
34135;DHT22;20410;55.578;12.968;2022-08-21T00:16:30;18.00;99.90
34135;DHT22;20410;55.578;12.968;2022-08-21T00:18:55;18.00;99.90
34135;DHT22;20410;55.578;12.968;2022-08-21T00:21:21;17.90;99.90
34135;DHT22;20410;55.578;12.968;2022-08-21T00:23:47;17.90;99.90
34135;DHT22;20410;55.578;12.968;2022-08-21T00:26:13;17.90;99.90
34135;DHT22;20410;55.578;12.968;2022-08-21T00:28:39;17.80;99.90
34135;DHT22;20410;55.578;12.968;2022-08-21T00:31:04;17.80;99.90
34135;DHT22;20410;55.578;12.968;2022-08-21T00:33:31;17.80;99.90
34135;DHT22;20410;55.578;12.968;2022-08-21T00:35:56;17.80;99.90
34135;DHT22;20410;55.578;12.968;2022-08-21T00:38:22;17.70;99.90
34135;DHT22;20410;55.578;12.968;2022-08-21T00:40:53;17.60;99.90
34135;DHT22;20410;55.578;12.968;2022-08-21T00:43:31;17.50;99.90
34135;DHT22;20410;55.578;12.968;2022-08-21T00:45:57;17.50;99.90
34135;DHT22;20410;55.578;12.968;2022-08-21T00:48:24;17.40;99.90
34135;DHT22;20410;55.578;12.968;2022-08-21T00:50:57;17.40;99.90
34135;DHT22;20410;55.578;12.968;2022-08-21T00:53:24;17.30;99.90
34135;DHT22;20410;55.578;12.968;2022-08-21T00:55:51;17.20;99.90
34135;DHT22;20410;55.578;12.968;2022-08-21T00:58:17;17.20;99.90
34135;DHT22;20410;55.578;12.968;2022-08-21T01:00:45;17.10;99.90
34135;DHT22;20410;55.578;12.968;2022-08-21T01:03:16;17.10;99.90
34135;DHT22;20410;55.578;12.968;2022-08-21T01:05:43;17.10;99.90
34135;DHT22;20410;55.578;12.968;2022-08-21T01:08:10;17.10;99.90
34135;DHT22;20410;55.578;12.968;2022-08-21T01:10:37;17.00;99.90
34135;DHT22;20410;55.578;12.968;2022-08-21T01:13:04;17.00;99.90
34135;DHT22;20410;55.578;12.968;2022-08-21T01:15:36;16.90;99.90
34135;DHT22;20410;55.578;12.968;2022-08-21T01:18:07;16.80;99.90
34135;DHT22;20410;55.578;12.968;2022-08-21T01:20:34;16.70;99.90
34135;DHT22;20410;55.578;12.968;2022-08-21T01:23:02;16.60;99.90
34135;DHT22;20410;55.578;12.968;2022-08-21T01:25:28;16.70;99.90
34135;DHT22;20410;55.578;12.968;2022-08-21T01:27:53;16.70;99.90
34135;DHT22;20410;55.578;12.968;2022-08-21T01:30:25;16.80;99.90
34135;DHT22;20410;55.578;12.968;2022-08-21T01:32:53;16.70;99.90
34135;DHT22;20410;55.578;12.968;2022-08-21T01:35:19;16.70;99.90
34135;DHT22;20410;55.578;12.968;2022-08-21T01:37:45;16.70;99.90
34135;DHT22;20410;55.578;12.968;2022-08-21T01:40:13;16.80;99.90
34135;DHT22;20410;55.578;12.968;2022-08-21T01:42:39;16.90;99.90
34135;DHT22;20410;55.578;12.968;2022-08-21T01:45:07;16.90;99.90
34135;DHT22;20410;55.578;12.968;2022-08-21T01:47:32;17.00;99.90
34135;DHT22;20410;55.578;12.968;2022-08-21T01:49:58;17.00;99.90
34135;DHT22;20410;55.578;12.968;2022-08-21T01:52:24;16.90;99.90
34135;DHT22;20410;55.578;12.968;2022-08-21T01:54:50;16.80;99.90
34135;DHT22;20410;55.578;12.968;2022-08-21T01:57:16;16.70;99.90
34135;DHT22;20410;55.578;12.968;2022-08-21T01:59:41;16.60;99.90
34135;DHT22;20410;55.578;12.968;2022-08-21T02:02:07;16.60;99.90
34135;DHT22;20410;55.578;12.968;2022-08-21T02:04:33;16.50;99.90
34135;DHT22;20410;55.578;12.968;2022-08-21T02:07:00;16.40;99.90
34135;DHT22;20410;55.578;12.968;2022-08-21T02:09:25;16.40;99.90
34135;DHT22;20410;55.578;12.968;2022-08-21T02:11:51;16.40;99.90
34135;DHT22;20410;55.578;12.968;2022-08-21T02:14:17;16.50;99.90
34135;DHT22;20410;55.578;12.968;2022-08-21T02:16:44;16.50;99.90
34135;DHT22;20410;55.578;12.968;2022-08-21T02:19:11;16.40;99.90
34135;DHT22;20410;55.578;12.968;2022-08-21T02:21:38;16.40;99.90
34135;DHT22;20410;55.578;12.968;2022-08-21T02:24:04;16.20;99.90
34135;DHT22;20410;55.578;12.968;2022-08-21T02:26:29;16.20;99.90
34135;DHT22;20410;55.578;12.968;2022-08-21T02:28:55;16.10;99.90
34135;DHT22;20410;55.578;12.968;2022-08-21T02:31:21;16.00;99.90
34135;DHT22;20410;55.578;12.968;2022-08-21T02:33:46;16.00;99.90
34135;DHT22;20410;55.578;12.968;2022-08-21T02:36:12;16.00;99.90
34135;DHT22;20410;55.578;12.968;2022-08-21T02:38:39;16.00;99.90
34135;DHT22;20410;55.578;12.968;2022-08-21T02:41:08;16.00;99.90
34135;DHT22;20410;55.578;12.968;2022-08-21T02:43:35;16.00;99.90
34135;DHT22;20410;55.578;12.968;2022-08-21T02:46:02;16.10;99.90
34135;DHT22;20410;55.578;12.968;2022-08-21T02:48:30;16.10;99.90
34135;DHT22;20410;55.578;12.968;2022-08-21T02:53:30;15.90;99.90
34135;DHT22;20410;55.578;12.968;2022-08-21T02:55:58;15.80;99.90
34135;DHT22;20410;55.578;12.968;2022-08-21T02:58:29;15.80;99.90
34135;DHT22;20410;55.578;12.968;2022-08-21T03:00:57;15.80;99.90
34135;DHT22;20410;55.578;12.968;2022-08-21T03:03:24;15.70;99.90
34135;DHT22;20410;55.578;12.968;2022-08-21T03:05:50;15.60;99.90
34135;DHT22;20410;55.578;12.968;2022-08-21T03:08:17;15.70;99.90
34135;DHT22;20410;55.578;12.968;2022-08-21T03:10:45;15.70;99.90
34135;DHT22;20410;55.578;12.968;2022-08-21T03:13:12;15.60;99.90
34135;DHT22;20410;55.578;12.968;2022-08-21T03:15:38;15.60;99.90
34135;DHT22;20410;55.578;12.968;2022-08-21T03:18:04;15.50;99.90
34135;DHT22;20410;55.578;12.968;2022-08-21T03:20:30;15.40;99.90
34135;DHT22;20410;55.578;12.968;2022-08-21T03:22:58;15.40;99.90
34135;DHT22;20410;55.578;12.968;2022-08-21T03:25:25;15.30;99.90
34135;DHT22;20410;55.578;12.968;2022-08-21T03:27:51;15.30;99.90
34135;DHT22;20410;55.578;12.968;2022-08-21T03:30:18;15.20;99.90
34135;DHT22;20410;55.578;12.968;2022-08-21T03:32:45;15.20;99.90
34135;DHT22;20410;55.578;12.968;2022-08-21T03:35:12;15.10;99.90
34135;DHT22;20410;55.578;12.968;2022-08-21T03:37:38;15.10;99.90
34135;DHT22;20410;55.578;12.968;2022-08-21T03:40:06;15.10;99.90
34135;DHT22;20410;55.578;12.968;2022-08-21T03:42:31;15.00;99.90
34135;DHT22;20410;55.578;12.968;2022-08-21T03:44:57;15.00;99.90
34135;DHT22;20410;55.578;12.968;2022-08-21T03:47:23;14.90;99.90
34135;DHT22;20410;55.578;12.968;2022-08-21T03:49:48;15.00;99.90
34135;DHT22;20410;55.578;12.968;2022-08-21T03:52:14;15.00;99.90
34135;DHT22;20410;55.578;12.968;2022-08-21T03:54:41;14.90;99.90
34135;DHT22;20410;55.578;12.968;2022-08-21T03:57:08;15.00;99.90
34135;DHT22;20410;55.578;12.968;2022-08-21T03:59:34;15.00;99.90
34135;DHT22;20410;55.578;12.968;2022-08-21T04:02:03;15.10;99.90
34135;DHT22;20410;55.578;12.968;2022-08-21T04:04:30;15.10;99.90
34135;DHT22;20410;55.578;12.968;2022-08-21T04:06:56;15.10;99.90
34135;DHT22;20410;55.578;12.968;2022-08-21T04:09:22;15.20;99.90
34135;DHT22;20410;55.578;12.968;2022-08-21T04:11:48;15.30;99.90
34135;DHT22;20410;55.578;12.968;2022-08-21T04:14:15;15.20;99.90
34135;DHT22;20410;55.578;12.968;2022-08-21T04:16:42;15.20;99.90
34135;DHT22;20410;55.578;12.968;2022-08-21T04:19:09;15.30;99.90
34135;DHT22;20410;55.578;12.968;2022-08-21T04:21:38;15.30;99.90
34135;DHT22;20410;55.578;12.968;2022-08-21T04:24:06;15.40;99.90
34135;DHT22;20410;55.578;12.968;2022-08-21T04:26:33;15.40;99.90
34135;DHT22;20410;55.578;12.968;2022-08-21T04:29:00;15.50;99.90
34135;DHT22;20410;55.578;12.968;2022-08-21T04:31:25;15.60;99.90
34135;DHT22;20410;55.578;12.968;2022-08-21T04:33:51;15.70;99.90
34135;DHT22;20410;55.578;12.968;2022-08-21T04:36:17;15.70;99.90
34135;DHT22;20410;55.578;12.968;2022-08-21T04:38:43;15.80;99.90
34135;DHT22;20410;55.578;12.968;2022-08-21T04:41:09;15.90;99.90
34135;DHT22;20410;55.578;12.968;2022-08-21T04:43:34;15.90;99.90
34135;DHT22;20410;55.578;12.968;2022-08-21T04:46:00;15.90;99.90
34135;DHT22;20410;55.578;12.968;2022-08-21T04:48:26;15.90;99.90
34135;DHT22;20410;55.578;12.968;2022-08-21T04:53:47;16.10;99.90
34135;DHT22;20410;55.578;12.968;2022-08-21T04:56:26;16.30;99.90
34135;DHT22;20410;55.578;12.968;2022-08-21T04:58:55;16.40;99.90
34135;DHT22;20410;55.578;12.968;2022-08-21T05:01:25;16.60;99.90
34135;DHT22;20410;55.578;12.968;2022-08-21T05:03:55;16.80;99.90
34135;DHT22;20410;55.578;12.968;2022-08-21T05:06:22;17.00;99.90
34135;DHT22;20410;55.578;12.968;2022-08-21T05:08:50;17.30;99.90
34135;DHT22;20410;55.578;12.968;2022-08-21T05:11:18;17.40;99.90
34135;DHT22;20410;55.578;12.968;2022-08-21T05:13:44;17.60;99.90
34135;DHT22;20410;55.578;12.968;2022-08-21T05:16:09;17.80;99.90
34135;DHT22;20410;55.578;12.968;2022-08-21T05:18:35;18.00;99.90
34135;DHT22;20410;55.578;12.968;2022-08-21T05:21:01;18.20;99.90
34135;DHT22;20410;55.578;12.968;2022-08-21T05:23:27;18.40;99.90
34135;DHT22;20410;55.578;12.968;2022-08-21T05:25:52;18.50;99.90
34135;DHT22;20410;55.578;12.968;2022-08-21T05:28:18;18.70;99.90
34135;DHT22;20410;55.578;12.968;2022-08-21T05:30:44;18.80;99.90
34135;DHT22;20410;55.578;12.968;2022-08-21T05:33:10;18.90;99.90
34135;DHT22;20410;55.578;12.968;2022-08-21T05:35:37;19.10;99.90
34135;DHT22;20410;55.578;12.968;2022-08-21T05:38:03;19.20;99.90
34135;DHT22;20410;55.578;12.968;2022-08-21T05:40:30;19.30;99.90
34135;DHT22;20410;55.578;12.968;2022-08-21T05:42:56;19.40;99.90
34135;DHT22;20410;55.578;12.968;2022-08-21T05:45:23;19.50;99.90
34135;DHT22;20410;55.578;12.968;2022-08-21T05:47:49;19.60;99.90
34135;DHT22;20410;55.578;12.968;2022-08-21T05:50:15;19.70;99.90
34135;DHT22;20410;55.578;12.968;2022-08-21T05:52:41;19.70;99.90
34135;DHT22;20410;55.578;12.968;2022-08-21T05:55:06;19.80;99.90
34135;DHT22;20410;55.578;12.968;2022-08-21T05:57:32;19.90;99.90
34135;DHT22;20410;55.578;12.968;2022-08-21T05:59:58;20.00;99.90
34135;DHT22;20410;55.578;12.968;2022-08-21T06:02:23;20.00;99.90
34135;DHT22;20410;55.578;12.968;2022-08-21T06:04:49;20.10;99.90
34135;DHT22;20410;55.578;12.968;2022-08-21T06:07:15;20.10;99.90
34135;DHT22;20410;55.578;12.968;2022-08-21T06:09:41;20.20;99.90
34135;DHT22;20410;55.578;12.968;2022-08-21T06:12:08;20.30;99.90
34135;DHT22;20410;55.578;12.968;2022-08-21T06:14:35;20.40;99.90
34135;DHT22;20410;55.578;12.968;2022-08-21T06:17:05;20.40;99.90
34135;DHT22;20410;55.578;12.968;2022-08-21T06:19:31;20.40;99.90
34135;DHT22;20410;55.578;12.968;2022-08-21T06:21:57;20.30;99.90
34135;DHT22;20410;55.578;12.968;2022-08-21T06:24:23;20.40;99.90
34135;DHT22;20410;55.578;12.968;2022-08-21T06:26:48;20.40;99.90
34135;DHT22;20410;55.578;12.968;2022-08-21T06:29:14;20.30;99.90
34135;DHT22;20410;55.578;12.968;2022-08-21T06:31:42;20.30;99.90
34135;DHT22;20410;55.578;12.968;2022-08-21T06:34:08;20.30;99.90
34135;DHT22;20410;55.578;12.968;2022-08-21T06:36:34;20.30;99.90
34135;DHT22;20410;55.578;12.968;2022-08-21T06:38:59;20.30;99.90
34135;DHT22;20410;55.578;12.968;2022-08-21T06:41:26;20.40;99.90
34135;DHT22;20410;55.578;12.968;2022-08-21T06:43:52;20.50;99.90
34135;DHT22;20410;55.578;12.968;2022-08-21T06:46:17;20.50;99.90
34135;DHT22;20410;55.578;12.968;2022-08-21T06:48:43;20.60;99.90
34135;DHT22;20410;55.578;12.968;2022-08-21T06:51:09;20.60;99.90
34135;DHT22;20410;55.578;12.968;2022-08-21T06:53:34;20.60;99.90
34135;DHT22;20410;55.578;12.968;2022-08-21T06:56:00;20.70;99.90
34135;DHT22;20410;55.578;12.968;2022-08-21T06:58:26;20.80;99.90
34135;DHT22;20410;55.578;12.968;2022-08-21T07:00:52;20.70;99.90
34135;DHT22;20410;55.578;12.968;2022-08-21T07:03:31;20.80;99.90
34135;DHT22;20410;55.578;12.968;2022-08-21T07:05:57;20.90;99.90
34135;DHT22;20410;55.578;12.968;2022-08-21T07:08:25;20.90;99.90
34135;DHT22;20410;55.578;12.968;2022-08-21T07:10:52;20.90;99.90
34135;DHT22;20410;55.578;12.968;2022-08-21T07:13:18;20.90;99.90
34135;DHT22;20410;55.578;12.968;2022-08-21T07:15:44;20.90;99.90
34135;DHT22;20410;55.578;12.968;2022-08-21T07:18:11;20.80;99.90
34135;DHT22;20410;55.578;12.968;2022-08-21T07:20:37;20.90;99.90
34135;DHT22;20410;55.578;12.968;2022-08-21T07:23:08;20.90;99.90
34135;DHT22;20410;55.578;12.968;2022-08-21T07:25:34;20.90;99.90
34135;DHT22;20410;55.578;12.968;2022-08-21T07:28:00;20.90;99.90
34135;DHT22;20410;55.578;12.968;2022-08-21T07:30:25;21.00;99.90
34135;DHT22;20410;55.578;12.968;2022-08-21T07:32:51;21.10;99.90
34135;DHT22;20410;55.578;12.968;2022-08-21T07:35:18;21.20;99.90
34135;DHT22;20410;55.578;12.968;2022-08-21T07:37:44;21.20;99.90
34135;DHT22;20410;55.578;12.968;2022-08-21T07:40:11;21.20;99.90
34135;DHT22;20410;55.578;12.968;2022-08-21T07:42:41;21.30;99.90
34135;DHT22;20410;55.578;12.968;2022-08-21T07:45:08;21.50;99.90
34135;DHT22;20410;55.578;12.968;2022-08-21T07:47:33;21.70;99.90
34135;DHT22;20410;55.578;12.968;2022-08-21T07:49:59;21.80;99.90
34135;DHT22;20410;55.578;12.968;2022-08-21T07:52:25;21.80;99.90
34135;DHT22;20410;55.578;12.968;2022-08-21T07:54:50;21.80;99.90
34135;DHT22;20410;55.578;12.968;2022-08-21T07:57:16;21.80;99.90
34135;DHT22;20410;55.578;12.968;2022-08-21T07:59:41;21.80;99.90
34135;DHT22;20410;55.578;12.968;2022-08-21T08:02:07;21.80;99.90
34135;DHT22;20410;55.578;12.968;2022-08-21T08:04:33;21.80;99.90
34135;DHT22;20410;55.578;12.968;2022-08-21T08:06:58;22.00;99.90
34135;DHT22;20410;55.578;12.968;2022-08-21T08:09:24;22.10;99.90
34135;DHT22;20410;55.578;12.968;2022-08-21T08:11:50;22.20;99.90
34135;DHT22;20410;55.578;12.968;2022-08-21T08:14:15;22.30;99.90
34135;DHT22;20410;55.578;12.968;2022-08-21T08:16:41;22.50;99.90
34135;DHT22;20410;55.578;12.968;2022-08-21T08:19:06;22.70;99.90
34135;DHT22;20410;55.578;12.968;2022-08-21T08:21:33;22.90;99.90
34135;DHT22;20410;55.578;12.968;2022-08-21T08:24:00;23.00;99.90
34135;DHT22;20410;55.578;12.968;2022-08-21T08:26:25;22.90;99.90
34135;DHT22;20410;55.578;12.968;2022-08-21T08:28:51;22.90;99.90
34135;DHT22;20410;55.578;12.968;2022-08-21T08:31:16;22.70;99.90
34135;DHT22;20410;55.578;12.968;2022-08-21T08:33:42;22.50;99.90
34135;DHT22;20410;55.578;12.968;2022-08-21T08:36:16;22.60;99.90
34135;DHT22;20410;55.578;12.968;2022-08-21T08:38:43;22.60;99.90
34135;DHT22;20410;55.578;12.968;2022-08-21T08:41:19;22.50;99.90
34135;DHT22;20410;55.578;12.968;2022-08-21T08:43:55;22.60;99.90
34135;DHT22;20410;55.578;12.968;2022-08-21T08:46:35;22.80;99.90
34135;DHT22;20410;55.578;12.968;2022-08-21T08:49:18;23.00;99.90
34135;DHT22;20410;55.578;12.968;2022-08-21T08:52:02;23.30;99.90
34135;DHT22;20410;55.578;12.968;2022-08-21T08:54:45;23.60;99.90
34135;DHT22;20410;55.578;12.968;2022-08-21T08:57:20;23.80;99.90
34135;DHT22;20410;55.578;12.968;2022-08-21T08:59:50;24.00;99.90
34135;DHT22;20410;55.578;12.968;2022-08-21T09:02:18;24.00;99.90
34135;DHT22;20410;55.578;12.968;2022-08-21T09:04:46;24.10;99.90
34135;DHT22;20410;55.578;12.968;2022-08-21T09:10:19;24.50;99.90
34135;DHT22;20410;55.578;12.968;2022-08-21T09:13:07;24.60;99.90
34135;DHT22;20410;55.578;12.968;2022-08-21T09:23:56;25.10;99.90
34135;DHT22;20410;55.578;12.968;2022-08-21T09:26:26;24.90;99.90
34135;DHT22;20410;55.578;12.968;2022-08-21T09:28:56;24.50;99.90
34135;DHT22;20410;55.578;12.968;2022-08-21T09:31:34;24.50;97.10
34135;DHT22;20410;55.578;12.968;2022-08-21T09:34:08;24.50;91.40
34135;DHT22;20410;55.578;12.968;2022-08-21T09:36:41;24.70;92.50
34135;DHT22;20410;55.578;12.968;2022-08-21T09:39:08;24.80;91.80
34135;DHT22;20410;55.578;12.968;2022-08-21T09:41:35;25.00;96.00
34135;DHT22;20410;55.578;12.968;2022-08-21T09:44:03;25.20;99.90
34135;DHT22;20410;55.578;12.968;2022-08-21T09:46:29;25.30;99.90
34135;DHT22;20410;55.578;12.968;2022-08-21T09:48:58;25.40;94.00
34135;DHT22;20410;55.578;12.968;2022-08-21T09:51:36;25.30;93.40
34135;DHT22;20410;55.578;12.968;2022-08-21T09:56:35;25.40;90.30
34135;DHT22;20410;55.578;12.968;2022-08-21T09:59:32;25.20;94.20
34135;DHT22;20410;55.578;12.968;2022-08-21T10:02:00;25.20;96.50
34135;DHT22;20410;55.578;12.968;2022-08-21T10:04:35;25.30;97.50
34135;DHT22;20410;55.578;12.968;2022-08-21T10:07:09;25.40;90.90
34135;DHT22;20410;55.578;12.968;2022-08-21T10:09:36;25.30;86.60
34135;DHT22;20410;55.578;12.968;2022-08-21T10:12:19;25.40;79.40
34135;DHT22;20410;55.578;12.968;2022-08-21T10:15:12;25.60;90.40
34135;DHT22;20410;55.578;12.968;2022-08-21T10:18:02;25.60;74.50
34135;DHT22;20410;55.578;12.968;2022-08-21T10:20:43;25.60;82.50
34135;DHT22;20410;55.578;12.968;2022-08-21T10:37:57;25.60;91.30
34135;DHT22;20410;55.578;12.968;2022-08-21T10:48:35;26.00;95.40
34135;DHT22;20410;55.578;12.968;2022-08-21T10:51:23;25.80;94.90
34135;DHT22;20410;55.578;12.968;2022-08-21T10:54:05;25.80;98.80
34135;DHT22;20410;55.578;12.968;2022-08-21T10:56:36;26.00;97.30
34135;DHT22;20410;55.578;12.968;2022-08-21T11:02:20;26.50;95.80
34135;DHT22;20410;55.578;12.968;2022-08-21T11:05:02;26.60;95.60
34135;DHT22;20410;55.578;12.968;2022-08-21T11:07:36;26.70;97.60
34135;DHT22;20410;55.578;12.968;2022-08-21T11:10:10;26.60;94.70
34135;DHT22;20410;55.578;12.968;2022-08-21T11:12:46;26.60;99.90
34135;DHT22;20410;55.578;12.968;2022-08-21T11:15:42;26.50;95.60
34135;DHT22;20410;55.578;12.968;2022-08-21T11:20:49;26.10;95.60
34135;DHT22;20410;55.578;12.968;2022-08-21T11:23:41;26.30;98.10
34135;DHT22;20410;55.578;12.968;2022-08-21T11:26:24;26.50;94.70
34135;DHT22;20410;55.578;12.968;2022-08-21T11:28:58;26.40;99.90
34135;DHT22;20410;55.578;12.968;2022-08-21T11:42:47;26.60;95.60
34135;DHT22;20410;55.578;12.968;2022-08-21T11:48:26;26.90;99.90
34135;DHT22;20410;55.578;12.968;2022-08-21T11:50:56;27.10;97.30
34135;DHT22;20410;55.578;12.968;2022-08-21T11:53:49;27.10;97.70
34135;DHT22;20410;55.578;12.968;2022-08-21T11:56:36;27.20;97.90
34135;DHT22;20410;55.578;12.968;2022-08-21T11:59:11;27.20;95.60
34135;DHT22;20410;55.578;12.968;2022-08-21T12:01:41;27.10;99.10
34135;DHT22;20410;55.578;12.968;2022-08-21T12:04:41;27.10;99.20
34135;DHT22;20410;55.578;12.968;2022-08-21T12:10:13;27.30;99.90
34135;DHT22;20410;55.578;12.968;2022-08-21T12:12:41;27.20;94.90
34135;DHT22;20410;55.578;12.968;2022-08-21T12:20:39;27.00;98.10
34135;DHT22;20410;55.578;12.968;2022-08-21T12:25:46;27.00;98.70
34135;DHT22;20410;55.578;12.968;2022-08-21T12:28:22;27.00;97.70
34135;DHT22;20410;55.578;12.968;2022-08-21T12:30:49;27.10;97.50
34135;DHT22;20410;55.578;12.968;2022-08-21T12:33:38;27.00;98.80
34135;DHT22;20410;55.578;12.968;2022-08-21T12:36:10;27.20;95.60
34135;DHT22;20410;55.578;12.968;2022-08-21T12:41:26;27.20;94.60
34135;DHT22;20410;55.578;12.968;2022-08-21T12:44:02;27.20;98.30
34135;DHT22;20410;55.578;12.968;2022-08-21T12:46:38;27.30;99.80
34135;DHT22;20410;55.578;12.968;2022-08-21T12:49:14;27.30;99.90
34135;DHT22;20410;55.578;12.968;2022-08-21T12:51:56;27.30;99.90
34135;DHT22;20410;55.578;12.968;2022-08-21T12:54:31;27.20;97.40
34135;DHT22;20410;55.578;12.968;2022-08-21T12:57:06;27.10;98.60
34135;DHT22;20410;55.578;12.968;2022-08-21T12:59:37;27.20;97.70
34135;DHT22;20410;55.578;12.968;2022-08-21T13:02:20;27.00;98.70
34135;DHT22;20410;55.578;12.968;2022-08-21T13:04:47;27.00;97.40
34135;DHT22;20410;55.578;12.968;2022-08-21T13:07:24;27.10;95.90
34135;DHT22;20410;55.578;12.968;2022-08-21T13:09:53;27.10;95.60
34135;DHT22;20410;55.578;12.968;2022-08-21T13:12:21;27.00;97.90
34135;DHT22;20410;55.578;12.968;2022-08-21T13:14:48;27.00;95.30
34135;DHT22;20410;55.578;12.968;2022-08-21T13:17:25;27.00;93.80
34135;DHT22;20410;55.578;12.968;2022-08-21T13:19:56;27.00;93.50
34135;DHT22;20410;55.578;12.968;2022-08-21T13:22:23;26.90;93.20
34135;DHT22;20410;55.578;12.968;2022-08-21T13:24:49;26.90;92.20
34135;DHT22;20410;55.578;12.968;2022-08-21T13:27:27;26.90;94.80
34135;DHT22;20410;55.578;12.968;2022-08-21T13:32:28;27.00;99.90
34135;DHT22;20410;55.578;12.968;2022-08-21T13:34:56;27.20;99.60
34135;DHT22;20410;55.578;12.968;2022-08-21T13:37:23;27.20;99.90
34135;DHT22;20410;55.578;12.968;2022-08-21T13:39:52;27.20;99.90
34135;DHT22;20410;55.578;12.968;2022-08-21T13:42:18;27.10;96.90
34135;DHT22;20410;55.578;12.968;2022-08-21T13:44:46;27.10;95.50
34135;DHT22;20410;55.578;12.968;2022-08-21T13:47:14;27.10;95.80
34135;DHT22;20410;55.578;12.968;2022-08-21T13:49:43;27.10;96.10
34135;DHT22;20410;55.578;12.968;2022-08-21T13:52:21;27.00;95.90
34135;DHT22;20410;55.578;12.968;2022-08-21T13:54:59;27.00;96.60
34135;DHT22;20410;55.578;12.968;2022-08-21T13:57:30;26.90;98.80
34135;DHT22;20410;55.578;12.968;2022-08-21T14:00:18;26.90;99.30
34135;DHT22;20410;55.578;12.968;2022-08-21T14:02:50;26.90;99.90
34135;DHT22;20410;55.578;12.968;2022-08-21T14:05:25;27.00;99.90
34135;DHT22;20410;55.578;12.968;2022-08-21T14:08:00;27.00;99.90
34135;DHT22;20410;55.578;12.968;2022-08-21T14:10:27;27.00;99.90
34135;DHT22;20410;55.578;12.968;2022-08-21T14:12:59;27.00;99.90
34135;DHT22;20410;55.578;12.968;2022-08-21T14:15:29;27.00;99.90
34135;DHT22;20410;55.578;12.968;2022-08-21T14:18:14;27.00;99.90
34135;DHT22;20410;55.578;12.968;2022-08-21T14:20:41;27.00;99.90
34135;DHT22;20410;55.578;12.968;2022-08-21T14:23:06;27.00;99.90
34135;DHT22;20410;55.578;12.968;2022-08-21T14:25:42;27.00;99.90
34135;DHT22;20410;55.578;12.968;2022-08-21T14:28:24;27.00;99.90
34135;DHT22;20410;55.578;12.968;2022-08-21T14:30:51;27.00;99.90
34135;DHT22;20410;55.578;12.968;2022-08-21T14:33:26;27.00;99.90
34135;DHT22;20410;55.578;12.968;2022-08-21T14:35:52;27.00;99.90
34135;DHT22;20410;55.578;12.968;2022-08-21T14:38:21;26.90;99.90
34135;DHT22;20410;55.578;12.968;2022-08-21T14:40:50;26.90;99.90
34135;DHT22;20410;55.578;12.968;2022-08-21T14:43:16;26.90;99.90
34135;DHT22;20410;55.578;12.968;2022-08-21T14:45:43;26.80;99.90
34135;DHT22;20410;55.578;12.968;2022-08-21T14:48:09;26.80;99.90
34135;DHT22;20410;55.578;12.968;2022-08-21T14:50:35;26.80;99.90
34135;DHT22;20410;55.578;12.968;2022-08-21T14:53:02;26.80;99.90
34135;DHT22;20410;55.578;12.968;2022-08-21T14:55:30;26.80;99.90
34135;DHT22;20410;55.578;12.968;2022-08-21T14:58:16;26.80;99.90
34135;DHT22;20410;55.578;12.968;2022-08-21T15:00:41;26.80;99.90
34135;DHT22;20410;55.578;12.968;2022-08-21T15:03:07;26.90;99.90
34135;DHT22;20410;55.578;12.968;2022-08-21T15:05:32;26.90;99.90
34135;DHT22;20410;55.578;12.968;2022-08-21T15:07:58;26.90;99.90
34135;DHT22;20410;55.578;12.968;2022-08-21T15:10:24;26.90;99.90
34135;DHT22;20410;55.578;12.968;2022-08-21T15:12:49;26.90;99.90
34135;DHT22;20410;55.578;12.968;2022-08-21T15:15:15;27.00;99.90
34135;DHT22;20410;55.578;12.968;2022-08-21T15:17:40;26.90;99.90
34135;DHT22;20410;55.578;12.968;2022-08-21T15:20:06;26.80;99.90
34135;DHT22;20410;55.578;12.968;2022-08-21T15:22:34;26.80;99.90
34135;DHT22;20410;55.578;12.968;2022-08-21T15:25:00;26.80;99.90
34135;DHT22;20410;55.578;12.968;2022-08-21T15:27:27;26.80;99.90
34135;DHT22;20410;55.578;12.968;2022-08-21T15:29:52;26.90;99.90
34135;DHT22;20410;55.578;12.968;2022-08-21T15:32:20;26.80;99.90
34135;DHT22;20410;55.578;12.968;2022-08-21T15:34:48;26.70;99.90
34135;DHT22;20410;55.578;12.968;2022-08-21T15:37:13;26.70;99.90
34135;DHT22;20410;55.578;12.968;2022-08-21T15:39:39;26.80;99.90
34135;DHT22;20410;55.578;12.968;2022-08-21T15:42:05;26.70;99.90
34135;DHT22;20410;55.578;12.968;2022-08-21T15:44:30;26.70;99.90
34135;DHT22;20410;55.578;12.968;2022-08-21T15:46:57;26.70;99.90
34135;DHT22;20410;55.578;12.968;2022-08-21T15:49:23;26.70;99.90
34135;DHT22;20410;55.578;12.968;2022-08-21T15:51:49;26.70;99.90
34135;DHT22;20410;55.578;12.968;2022-08-21T15:54:15;26.60;99.90
34135;DHT22;20410;55.578;12.968;2022-08-21T15:56:44;26.50;99.90
34135;DHT22;20410;55.578;12.968;2022-08-21T15:59:15;26.40;99.90
34135;DHT22;20410;55.578;12.968;2022-08-21T16:01:42;26.30;99.90
34135;DHT22;20410;55.578;12.968;2022-08-21T16:04:09;26.30;99.90
34135;DHT22;20410;55.578;12.968;2022-08-21T16:06:34;26.20;99.90
34135;DHT22;20410;55.578;12.968;2022-08-21T16:09:00;26.20;99.90
34135;DHT22;20410;55.578;12.968;2022-08-21T16:11:26;26.10;99.90
34135;DHT22;20410;55.578;12.968;2022-08-21T16:13:52;26.10;99.90
34135;DHT22;20410;55.578;12.968;2022-08-21T16:16:20;26.10;99.90
34135;DHT22;20410;55.578;12.968;2022-08-21T16:18:47;26.10;99.90
34135;DHT22;20410;55.578;12.968;2022-08-21T16:21:14;26.10;99.90
34135;DHT22;20410;55.578;12.968;2022-08-21T16:23:40;26.00;99.90
34135;DHT22;20410;55.578;12.968;2022-08-21T16:26:07;25.80;99.90
34135;DHT22;20410;55.578;12.968;2022-08-21T16:28:35;25.80;99.90
34135;DHT22;20410;55.578;12.968;2022-08-21T16:31:01;25.80;99.90
34135;DHT22;20410;55.578;12.968;2022-08-21T16:33:43;25.80;99.90
34135;DHT22;20410;55.578;12.968;2022-08-21T16:36:11;25.80;99.90
34135;DHT22;20410;55.578;12.968;2022-08-21T16:38:38;25.70;99.90
34135;DHT22;20410;55.578;12.968;2022-08-21T16:41:07;25.60;99.90
34135;DHT22;20410;55.578;12.968;2022-08-21T16:43:34;25.60;99.90
34135;DHT22;20410;55.578;12.968;2022-08-21T16:46:00;25.50;99.90